Terminal Aerodrome Forecast
Issued by NWS Memphis, TN

Home | Current Version | Previous Version | Text Only | Print | Product List | Glossary On
Versions: 1 2 3 4 5 6 7 8 9 10 11 12 13 14 15
000
FTUS44 KMEG 182300
TAFJBR
TAF
KJBR 182320Z 1900/1924 04006KT P6SM SCT035
      TEMPO 1909/1913 4SM BR FEW004
     FM191500 10005KT P6SM SCT035 SCT200=

USA.gov is the U.S. government's official web portal to all federal, state and local government web resources and services.